Volgoneft-250 — UFQT — position and weather

sailwx.info

Track history (hours):
 
Tides and Currents Weather Stations Pressure Air Temp Water Temp Dewpoint Dewpoint Depression Visibility Wind Speed Wind Dir Waves Ship Positions

Volgoneft-250

Last reported at 2017-May-24 17:59 UTC. Time now 2017-May-25 16:14 UTC.
Position N 45°30' E 036°49'.

Length 133 m; draft 2.6 m.

Type: Tanker. MMSI: 273340600.

Date/timePositionNaut miles runAvg speedWind from/ knotsBaromVisibWave heightAir tempDewpointWater temp
2017-May-24 17:59N 45°30' E 036°49'4 7.8
2017-May-24 17:30N 45°27' E 036°45'4 7.9
2017-May-24 17:00N 45°25' E 036°41'4 8.0
2017-May-24 16:30N 45°21' E 036°39'4 7.4
2017-May-24 16:00N 45°19' E 036°35'4 7.9
2017-May-24 15:31N 45°18' E 036°29'2 4.9
2017-May-24 15:00N 45°16' E 036°29'2 4.4
2017-May-24 14:30N 45°14' E 036°30'0 0.2
2017-May-24 12:58N 45°14' E 036°30'0 0.0
2017-May-24 12:26N 45°14' E 036°30'0 0.0
2017-May-24 11:59N 45°14' E 036°30'0 0.0
2017-May-24 10:46N 45°14' E 036°30'0 0.0
2017-May-24 09:39N 45°14' E 036°30'0 0.0
2017-May-24 09:20N 45°14' E 036°30'0 1.2
2017-May-24 09:00N 45°13' E 036°30'2 0.2
2017-May-23 19:17N 45°11' E 036°28'2 7.6
2017-May-23 19:00N 45°14' E 036°28'4 7.3
2017-May-23 18:30N 45°17' E 036°29'4 7.2
2017-May-23 18:00N 45°19' E 036°33'4 7.2
2017-May-23 17:30N 45°20' E 036°38'3 6.2
2017-May-23 17:00N 45°23' E 036°40'4 7.8
2017-May-23 16:30N 45°26' E 036°42'3 5.8
2017-May-23 16:00N 45°28' E 036°45'0 0.1
2017-May-23 15:28N 45°28' E 036°45'0 0.0
2017-May-23 14:55N 45°28' E 036°45'0 0.0
2017-May-23 13:45N 45°28' E 036°45'0 0.0
2017-May-23 13:27N 45°28' E 036°45'0 1.0
2017-May-23 13:00N 45°29' E 036°46'  
2017-May-16 18:46N 53°08' E 049°32'  
Track history (hours):
 
Tides and Currents Weather Stations Pressure Air Temp Water Temp Dewpoint Dewpoint Depression Visibility Wind Speed Wind Dir Waves Ship Positions

Volgoneft-250

Last reported at 2017-May-24 17:59 UTC. Time now 2017-May-25 16:14 UTC.
Position N 45°30' E 036°49'.

Length 133 m; draft 2.6 m.

Type: Tanker. MMSI: 273340600.

Date/timePositionNaut miles runAvg speedWind from/ knotsBaromVisibWave heightAir tempDewpointWater temp
2017-May-24 17:59N 45°30' E 036°49'4 7.8
2017-May-24 17:30N 45°27' E 036°45'4 7.9
2017-May-24 17:00N 45°25' E 036°41'4 8.0
2017-May-24 16:30N 45°21' E 036°39'4 7.4
2017-May-24 16:00N 45°19' E 036°35'4 7.9
2017-May-24 15:31N 45°18' E 036°29'2 4.9
2017-May-24 15:00N 45°16' E 036°29'2 4.4
2017-May-24 14:30N 45°14' E 036°30'0 0.2
2017-May-24 12:58N 45°14' E 036°30'0 0.0
2017-May-24 12:26N 45°14' E 036°30'0 0.0
2017-May-24 11:59N 45°14' E 036°30'0 0.0
2017-May-24 10:46N 45°14' E 036°30'0 0.0
2017-May-24 09:39N 45°14' E 036°30'0 0.0
2017-May-24 09:20N 45°14' E 036°30'0 1.2
2017-May-24 09:00N 45°13' E 036°30'2 0.2
2017-May-23 19:17N 45°11' E 036°28'2 7.6
2017-May-23 19:00N 45°14' E 036°28'4 7.3
2017-May-23 18:30N 45°17' E 036°29'4 7.2
2017-May-23 18:00N 45°19' E 036°33'4 7.2
2017-May-23 17:30N 45°20' E 036°38'3 6.2
2017-May-23 17:00N 45°23' E 036°40'4 7.8
2017-May-23 16:30N 45°26' E 036°42'3 5.8
2017-May-23 16:00N 45°28' E 036°45'0 0.1
2017-May-23 15:28N 45°28' E 036°45'0 0.0
2017-May-23 14:55N 45°28' E 036°45'0 0.0
2017-May-23 13:45N 45°28' E 036°45'0 0.0
2017-May-23 13:27N 45°28' E 036°45'0 1.0
2017-May-23 13:00N 45°29' E 036°46'  
2017-May-16 18:46N 53°08' E 049°32'  

Dump ship's entire track history